Terminal Aerodrome Forecast
Issued by NWS

Home | Current Version | Previous Version | Text Only | Print | Product List | Glossary On
Versions: 1 2 3 4 5 6 7 8 9 10 11 12 13 14 15 16
000
FTUS41 KGYX 031128
TAFPSM
TAF
KPSM 031128Z 0312/0412 VRB04KT P6SM SCT120 BKN200
     FM031500 03005KT P6SM SCT080 BKN200
     FM031900 10005KT P6SM VCTS SCT050CB BKN080
     FM040100 06005KT P6SM -SHRA BKN050 OVC070
     FM040500 03009KT P6SM BKN050 BKN080=

USA.gov is the U.S. government's official web portal to all federal, state and local government web resources and services.